sensor_id;sensor_type;location;lat;lon;timestamp;P1;durP1;ratioP1;P2;durP2;ratioP2
13683;SDS011;6914;53.552;9.908;2023-08-12T00:00:23;5.90;;;5.00;;
13683;SDS011;6914;53.552;9.908;2023-08-12T00:02:50;9.30;;;5.10;;
13683;SDS011;6914;53.552;9.908;2023-08-12T00:05:19;7.63;;;5.40;;
13683;SDS011;6914;53.552;9.908;2023-08-12T00:07:46;14.63;;;5.40;;
13683;SDS011;6914;53.552;9.908;2023-08-12T00:10:14;5.07;;;4.70;;
13683;SDS011;6914;53.552;9.908;2023-08-12T00:12:42;7.13;;;4.70;;
13683;SDS011;6914;53.552;9.908;2023-08-12T00:15:09;9.90;;;4.60;;
13683;SDS011;6914;53.552;9.908;2023-08-12T00:17:37;8.57;;;5.13;;
13683;SDS011;6914;53.552;9.908;2023-08-12T00:20:06;12.77;;;5.10;;
13683;SDS011;6914;53.552;9.908;2023-08-12T00:22:37;5.27;;;4.83;;
13683;SDS011;6914;53.552;9.908;2023-08-12T00:25:05;5.23;;;4.80;;
13683;SDS011;6914;53.552;9.908;2023-08-12T00:27:33;5.00;;;4.60;;
13683;SDS011;6914;53.552;9.908;2023-08-12T00:30:00;11.30;;;5.60;;
13683;SDS011;6914;53.552;9.908;2023-08-12T00:32:27;13.80;;;5.27;;
13683;SDS011;6914;53.552;9.908;2023-08-12T00:34:54;8.67;;;5.10;;
13683;SDS011;6914;53.552;9.908;2023-08-12T00:37:21;9.70;;;4.40;;
13683;SDS011;6914;53.552;9.908;2023-08-12T00:39:50;5.60;;;4.40;;
13683;SDS011;6914;53.552;9.908;2023-08-12T00:42:17;4.93;;;4.30;;
13683;SDS011;6914;53.552;9.908;2023-08-12T00:44:44;5.27;;;4.43;;
13683;SDS011;6914;53.552;9.908;2023-08-12T00:47:11;10.37;;;4.30;;
13683;SDS011;6914;53.552;9.908;2023-08-12T00:49:40;6.73;;;4.83;;
13683;SDS011;6914;53.552;9.908;2023-08-12T00:52:08;4.97;;;4.70;;
13683;SDS011;6914;53.552;9.908;2023-08-12T00:54:36;10.80;;;6.10;;
13683;SDS011;6914;53.552;9.908;2023-08-12T00:57:05;6.27;;;5.20;;
13683;SDS011;6914;53.552;9.908;2023-08-12T00:59:32;10.80;;;5.57;;
13683;SDS011;6914;53.552;9.908;2023-08-12T01:02:02;8.50;;;4.70;;
13683;SDS011;6914;53.552;9.908;2023-08-12T01:04:29;5.70;;;5.20;;
13683;SDS011;6914;53.552;9.908;2023-08-12T01:06:57;4.87;;;4.30;;
13683;SDS011;6914;53.552;9.908;2023-08-12T01:09:24;5.03;;;4.73;;
13683;SDS011;6914;53.552;9.908;2023-08-12T01:11:52;10.33;;;5.27;;
13683;SDS011;6914;53.552;9.908;2023-08-12T01:14:24;6.63;;;5.17;;
13683;SDS011;6914;53.552;9.908;2023-08-12T01:16:55;9.00;;;6.40;;
13683;SDS011;6914;53.552;9.908;2023-08-12T01:19:28;5.10;;;4.80;;
13683;SDS011;6914;53.552;9.908;2023-08-12T01:21:58;5.40;;;4.90;;
13683;SDS011;6914;53.552;9.908;2023-08-12T01:24:27;7.20;;;5.30;;
13683;SDS011;6914;53.552;9.908;2023-08-12T01:27:01;6.33;;;4.93;;
13683;SDS011;6914;53.552;9.908;2023-08-12T01:29:28;9.17;;;5.07;;
13683;SDS011;6914;53.552;9.908;2023-08-12T01:31:58;9.30;;;5.63;;
13683;SDS011;6914;53.552;9.908;2023-08-12T01:34:30;7.53;;;5.73;;
13683;SDS011;6914;53.552;9.908;2023-08-12T01:37:01;13.93;;;4.63;;
13683;SDS011;6914;53.552;9.908;2023-08-12T01:39:32;46.33;;;5.73;;
13683;SDS011;6914;53.552;9.908;2023-08-12T01:42:00;13.20;;;5.20;;
13683;SDS011;6914;53.552;9.908;2023-08-12T01:44:28;7.20;;;4.80;;
13683;SDS011;6914;53.552;9.908;2023-08-12T01:46:55;8.37;;;5.20;;
13683;SDS011;6914;53.552;9.908;2023-08-12T01:49:22;5.03;;;4.80;;
13683;SDS011;6914;53.552;9.908;2023-08-12T01:51:49;4.90;;;4.50;;
13683;SDS011;6914;53.552;9.908;2023-08-12T01:54:17;8.50;;;4.47;;
13683;SDS011;6914;53.552;9.908;2023-08-12T01:56:45;10.23;;;4.63;;
13683;SDS011;6914;53.552;9.908;2023-08-12T01:59:12;5.80;;;5.03;;
13683;SDS011;6914;53.552;9.908;2023-08-12T02:01:40;14.10;;;4.93;;
13683;SDS011;6914;53.552;9.908;2023-08-12T02:04:07;13.10;;;4.93;;
13683;SDS011;6914;53.552;9.908;2023-08-12T02:06:34;5.47;;;4.90;;
13683;SDS011;6914;53.552;9.908;2023-08-12T02:09:02;28.37;;;4.57;;
13683;SDS011;6914;53.552;9.908;2023-08-12T02:11:29;12.33;;;5.27;;
13683;SDS011;6914;53.552;9.908;2023-08-12T02:13:58;4.53;;;4.23;;
13683;SDS011;6914;53.552;9.908;2023-08-12T02:16:25;6.93;;;4.90;;
13683;SDS011;6914;53.552;9.908;2023-08-12T02:18:52;8.40;;;4.43;;
13683;SDS011;6914;53.552;9.908;2023-08-12T02:21:19;5.17;;;4.67;;
13683;SDS011;6914;53.552;9.908;2023-08-12T02:23:47;4.50;;;4.30;;
13683;SDS011;6914;53.552;9.908;2023-08-12T02:26:14;7.73;;;5.10;;
13683;SDS011;6914;53.552;9.908;2023-08-12T02:28:41;10.20;;;4.93;;
13683;SDS011;6914;53.552;9.908;2023-08-12T02:31:10;5.00;;;4.70;;
13683;SDS011;6914;53.552;9.908;2023-08-12T02:33:37;11.90;;;4.80;;
13683;SDS011;6914;53.552;9.908;2023-08-12T02:36:04;8.93;;;4.67;;
13683;SDS011;6914;53.552;9.908;2023-08-12T02:38:31;6.60;;;4.80;;
13683;SDS011;6914;53.552;9.908;2023-08-12T02:40:59;10.73;;;5.37;;
13683;SDS011;6914;53.552;9.908;2023-08-12T02:43:26;9.00;;;5.30;;
13683;SDS011;6914;53.552;9.908;2023-08-12T02:45:53;5.83;;;4.77;;
13683;SDS011;6914;53.552;9.908;2023-08-12T02:48:21;9.13;;;4.43;;
13683;SDS011;6914;53.552;9.908;2023-08-12T02:50:48;4.77;;;4.10;;
13683;SDS011;6914;53.552;9.908;2023-08-12T02:53:16;4.50;;;4.30;;
13683;SDS011;6914;53.552;9.908;2023-08-12T02:55:44;6.70;;;4.73;;
13683;SDS011;6914;53.552;9.908;2023-08-12T02:58:12;4.93;;;4.40;;
13683;SDS011;6914;53.552;9.908;2023-08-12T03:00:40;7.37;;;4.50;;
13683;SDS011;6914;53.552;9.908;2023-08-12T03:03:09;6.77;;;5.40;;
13683;SDS011;6914;53.552;9.908;2023-08-12T03:05:37;19.20;;;5.53;;
13683;SDS011;6914;53.552;9.908;2023-08-12T03:08:06;12.00;;;5.50;;
13683;SDS011;6914;53.552;9.908;2023-08-12T03:10:33;9.90;;;4.90;;
13683;SDS011;6914;53.552;9.908;2023-08-12T03:13:00;6.40;;;5.00;;
13683;SDS011;6914;53.552;9.908;2023-08-12T03:15:28;6.37;;;4.53;;
13683;SDS011;6914;53.552;9.908;2023-08-12T03:17:55;7.27;;;5.63;;
13683;SDS011;6914;53.552;9.908;2023-08-12T03:20:22;18.33;;;6.43;;
13683;SDS011;6914;53.552;9.908;2023-08-12T03:22:51;8.60;;;4.93;;
13683;SDS011;6914;53.552;9.908;2023-08-12T03:25:18;5.97;;;5.10;;
13683;SDS011;6914;53.552;9.908;2023-08-12T03:27:45;5.30;;;5.00;;
13683;SDS011;6914;53.552;9.908;2023-08-12T03:30:13;4.60;;;4.37;;
13683;SDS011;6914;53.552;9.908;2023-08-12T03:32:40;6.27;;;5.50;;
13683;SDS011;6914;53.552;9.908;2023-08-12T03:35:07;5.90;;;5.30;;
13683;SDS011;6914;53.552;9.908;2023-08-12T03:37:34;5.60;;;5.30;;
13683;SDS011;6914;53.552;9.908;2023-08-12T03:40:03;9.43;;;5.03;;
13683;SDS011;6914;53.552;9.908;2023-08-12T03:42:31;4.97;;;4.57;;
13683;SDS011;6914;53.552;9.908;2023-08-12T03:44:58;5.33;;;4.93;;
13683;SDS011;6914;53.552;9.908;2023-08-12T03:47:25;5.60;;;5.10;;
13683;SDS011;6914;53.552;9.908;2023-08-12T03:49:52;8.70;;;5.97;;
13683;SDS011;6914;53.552;9.908;2023-08-12T03:52:20;10.03;;;4.70;;
13683;SDS011;6914;53.552;9.908;2023-08-12T03:54:47;5.10;;;4.80;;
13683;SDS011;6914;53.552;9.908;2023-08-12T03:57:15;4.13;;;4.00;;
13683;SDS011;6914;53.552;9.908;2023-08-12T03:59:43;10.13;;;5.10;;
13683;SDS011;6914;53.552;9.908;2023-08-12T04:02:10;8.63;;;5.07;;
13683;SDS011;6914;53.552;9.908;2023-08-12T04:04:37;11.57;;;5.00;;
13683;SDS011;6914;53.552;9.908;2023-08-12T04:07:04;12.57;;;5.10;;
13683;SDS011;6914;53.552;9.908;2023-08-12T04:09:32;4.93;;;4.60;;
13683;SDS011;6914;53.552;9.908;2023-08-12T04:11:59;5.57;;;5.17;;
13683;SDS011;6914;53.552;9.908;2023-08-12T04:14:27;6.00;;;5.20;;
13683;SDS011;6914;53.552;9.908;2023-08-12T04:16:55;6.17;;;5.77;;
13683;SDS011;6914;53.552;9.908;2023-08-12T04:19:22;7.93;;;5.90;;
13683;SDS011;6914;53.552;9.908;2023-08-12T04:21:49;5.80;;;5.50;;
13683;SDS011;6914;53.552;9.908;2023-08-12T04:24:16;6.03;;;5.40;;
13683;SDS011;6914;53.552;9.908;2023-08-12T04:26:43;5.23;;;4.83;;
13683;SDS011;6914;53.552;9.908;2023-08-12T04:29:11;7.50;;;5.93;;
13683;SDS011;6914;53.552;9.908;2023-08-12T04:31:39;8.20;;;4.60;;
13683;SDS011;6914;53.552;9.908;2023-08-12T04:34:07;6.43;;;5.20;;
13683;SDS011;6914;53.552;9.908;2023-08-12T04:36:34;5.43;;;4.93;;
13683;SDS011;6914;53.552;9.908;2023-08-12T04:39:01;12.83;;;5.20;;
13683;SDS011;6914;53.552;9.908;2023-08-12T04:41:29;5.67;;;5.27;;
13683;SDS011;6914;53.552;9.908;2023-08-12T04:43:56;5.37;;;5.17;;
13683;SDS011;6914;53.552;9.908;2023-08-12T04:46:23;5.67;;;5.17;;
13683;SDS011;6914;53.552;9.908;2023-08-12T04:48:51;5.73;;;5.23;;
13683;SDS011;6914;53.552;9.908;2023-08-12T04:51:19;10.23;;;4.97;;
13683;SDS011;6914;53.552;9.908;2023-08-12T04:53:48;5.77;;;5.00;;
13683;SDS011;6914;53.552;9.908;2023-08-12T04:56:16;6.10;;;5.40;;
13683;SDS011;6914;53.552;9.908;2023-08-12T04:58:43;5.87;;;5.30;;
13683;SDS011;6914;53.552;9.908;2023-08-12T05:01:11;5.80;;;5.30;;
13683;SDS011;6914;53.552;9.908;2023-08-12T05:03:38;5.57;;;5.07;;
13683;SDS011;6914;53.552;9.908;2023-08-12T05:06:06;7.00;;;5.00;;
13683;SDS011;6914;53.552;9.908;2023-08-12T05:08:33;5.90;;;5.17;;
13683;SDS011;6914;53.552;9.908;2023-08-12T05:11:01;4.10;;;3.90;;
13683;SDS011;6914;53.552;9.908;2023-08-12T05:13:28;5.13;;;4.83;;
13683;SDS011;6914;53.552;9.908;2023-08-12T05:15:55;12.50;;;5.57;;
13683;SDS011;6914;53.552;9.908;2023-08-12T05:18:22;13.73;;;4.63;;
13683;SDS011;6914;53.552;9.908;2023-08-12T05:20:50;10.53;;;5.87;;
13683;SDS011;6914;53.552;9.908;2023-08-12T05:23:19;6.00;;;5.50;;
13683;SDS011;6914;53.552;9.908;2023-08-12T05:25:46;14.00;;;5.50;;
13683;SDS011;6914;53.552;9.908;2023-08-12T05:28:14;6.67;;;5.83;;
13683;SDS011;6914;53.552;9.908;2023-08-12T05:30:41;6.13;;;5.50;;
13683;SDS011;6914;53.552;9.908;2023-08-12T05:33:08;14.03;;;6.10;;
13683;SDS011;6914;53.552;9.908;2023-08-12T05:35:35;6.63;;;6.03;;
13683;SDS011;6914;53.552;9.908;2023-08-12T05:38:03;6.90;;;6.37;;
13683;SDS011;6914;53.552;9.908;2023-08-12T05:40:31;6.63;;;6.00;;
13683;SDS011;6914;53.552;9.908;2023-08-12T05:42:59;13.63;;;6.33;;
13683;SDS011;6914;53.552;9.908;2023-08-12T05:45:26;19.73;;;6.63;;
13683;SDS011;6914;53.552;9.908;2023-08-12T05:47:53;10.20;;;6.10;;
13683;SDS011;6914;53.552;9.908;2023-08-12T05:50:20;15.37;;;7.30;;
13683;SDS011;6914;53.552;9.908;2023-08-12T05:52:47;7.40;;;6.70;;
13683;SDS011;6914;53.552;9.908;2023-08-12T05:55:14;6.87;;;6.20;;
13683;SDS011;6914;53.552;9.908;2023-08-12T05:57:43;11.00;;;7.77;;
13683;SDS011;6914;53.552;9.908;2023-08-12T06:00:10;8.67;;;7.83;;
13683;SDS011;6914;53.552;9.908;2023-08-12T06:02:38;10.37;;;7.87;;
13683;SDS011;6914;53.552;9.908;2023-08-12T06:05:05;8.93;;;8.13;;
13683;SDS011;6914;53.552;9.908;2023-08-12T06:07:32;12.63;;;8.43;;
13683;SDS011;6914;53.552;9.908;2023-08-12T06:09:59;8.20;;;7.40;;
13683;SDS011;6914;53.552;9.908;2023-08-12T06:12:27;8.70;;;7.90;;
13683;SDS011;6914;53.552;9.908;2023-08-12T06:14:55;10.03;;;7.73;;
13683;SDS011;6914;53.552;9.908;2023-08-12T06:17:23;8.50;;;7.90;;
13683;SDS011;6914;53.552;9.908;2023-08-12T06:19:50;10.10;;;8.70;;
13683;SDS011;6914;53.552;9.908;2023-08-12T06:22:17;9.40;;;8.60;;
13683;SDS011;6914;53.552;9.908;2023-08-12T06:24:44;15.63;;;8.87;;
13683;SDS011;6914;53.552;9.908;2023-08-12T06:27:11;12.03;;;10.07;;
13683;SDS011;6914;53.552;9.908;2023-08-12T06:29:38;15.07;;;11.93;;
13683;SDS011;6914;53.552;9.908;2023-08-12T06:32:07;10.57;;;9.57;;
13683;SDS011;6914;53.552;9.908;2023-08-12T06:34:37;12.43;;;11.00;;
13683;SDS011;6914;53.552;9.908;2023-08-12T06:37:05;13.23;;;10.50;;
13683;SDS011;6914;53.552;9.908;2023-08-12T06:39:32;12.63;;;11.40;;
13683;SDS011;6914;53.552;9.908;2023-08-12T06:41:59;13.37;;;12.17;;
13683;SDS011;6914;53.552;9.908;2023-08-12T06:44:26;14.50;;;13.00;;
13683;SDS011;6914;53.552;9.908;2023-08-12T06:46:54;15.03;;;12.50;;
13683;SDS011;6914;53.552;9.908;2023-08-12T06:49:22;15.93;;;14.43;;
13683;SDS011;6914;53.552;9.908;2023-08-12T06:51:49;27.67;;;14.60;;
13683;SDS011;6914;53.552;9.908;2023-08-12T06:54:16;20.90;;;15.37;;
13683;SDS011;6914;53.552;9.908;2023-08-12T06:56:44;23.50;;;15.90;;
13683;SDS011;6914;53.552;9.908;2023-08-12T06:59:11;21.00;;;16.57;;
13683;SDS011;6914;53.552;9.908;2023-08-12T07:01:38;15.33;;;13.90;;
13683;SDS011;6914;53.552;9.908;2023-08-12T07:04:05;16.40;;;13.53;;
13683;SDS011;6914;53.552;9.908;2023-08-12T07:06:34;19.90;;;15.00;;
13683;SDS011;6914;53.552;9.908;2023-08-12T07:09:01;19.00;;;14.90;;
13683;SDS011;6914;53.552;9.908;2023-08-12T07:11:28;17.07;;;15.37;;
13683;SDS011;6914;53.552;9.908;2023-08-12T07:13:55;19.80;;;15.50;;
13683;SDS011;6914;53.552;9.908;2023-08-12T07:16:22;23.93;;;15.60;;
13683;SDS011;6914;53.552;9.908;2023-08-12T07:18:49;17.83;;;15.73;;
13683;SDS011;6914;53.552;9.908;2023-08-12T07:21:16;17.30;;;14.40;;
13683;SDS011;6914;53.552;9.908;2023-08-12T07:23:45;19.93;;;16.23;;
13683;SDS011;6914;53.552;9.908;2023-08-12T07:26:12;32.87;;;17.30;;
13683;SDS011;6914;53.552;9.908;2023-08-12T07:28:39;22.07;;;17.57;;
13683;SDS011;6914;53.552;9.908;2023-08-12T07:31:06;19.93;;;16.73;;
13683;SDS011;6914;53.552;9.908;2023-08-12T07:33:34;19.77;;;16.50;;
13683;SDS011;6914;53.552;9.908;2023-08-12T07:36:01;25.40;;;15.70;;
13683;SDS011;6914;53.552;9.908;2023-08-12T07:38:28;17.23;;;14.97;;
13683;SDS011;6914;53.552;9.908;2023-08-12T07:40:57;21.33;;;15.03;;
13683;SDS011;6914;53.552;9.908;2023-08-12T07:43:24;17.50;;;13.30;;
13683;SDS011;6914;53.552;9.908;2023-08-12T07:45:51;17.63;;;14.77;;
13683;SDS011;6914;53.552;9.908;2023-08-12T07:48:18;20.10;;;15.47;;
13683;SDS011;6914;53.552;9.908;2023-08-12T07:50:45;16.87;;;15.40;;
13683;SDS011;6914;53.552;9.908;2023-08-12T07:53:14;20.10;;;15.97;;
13683;SDS011;6914;53.552;9.908;2023-08-12T07:55:41;22.30;;;14.70;;
13683;SDS011;6914;53.552;9.908;2023-08-12T07:58:09;27.00;;;17.10;;
13683;SDS011;6914;53.552;9.908;2023-08-12T08:00:37;14.03;;;11.97;;
13683;SDS011;6914;53.552;9.908;2023-08-12T08:03:04;15.20;;;13.63;;
13683;SDS011;6914;53.552;9.908;2023-08-12T08:05:31;17.23;;;11.80;;
13683;SDS011;6914;53.552;9.908;2023-08-12T08:07:58;15.90;;;13.07;;
13683;SDS011;6914;53.552;9.908;2023-08-12T08:10:25;15.07;;;12.97;;
13683;SDS011;6914;53.552;9.908;2023-08-12T08:12:53;13.43;;;11.40;;
13683;SDS011;6914;53.552;9.908;2023-08-12T08:15:21;19.93;;;10.80;;
13683;SDS011;6914;53.552;9.908;2023-08-12T08:17:48;13.20;;;11.20;;
13683;SDS011;6914;53.552;9.908;2023-08-12T08:20:16;14.63;;;11.30;;
13683;SDS011;6914;53.552;9.908;2023-08-12T08:22:43;18.73;;;9.53;;
13683;SDS011;6914;53.552;9.908;2023-08-12T08:25:10;14.23;;;11.10;;
13683;SDS011;6914;53.552;9.908;2023-08-12T08:27:37;16.30;;;12.40;;
13683;SDS011;6914;53.552;9.908;2023-08-12T08:30:05;12.97;;;11.77;;
13683;SDS011;6914;53.552;9.908;2023-08-12T08:32:35;11.83;;;10.73;;
13683;SDS011;6914;53.552;9.908;2023-08-12T08:35:02;13.77;;;10.90;;
13683;SDS011;6914;53.552;9.908;2023-08-12T08:37:29;18.83;;;10.77;;
13683;SDS011;6914;53.552;9.908;2023-08-12T08:39:57;14.47;;;10.77;;
13683;SDS011;6914;53.552;9.908;2023-08-12T08:42:24;20.70;;;10.13;;
13683;SDS011;6914;53.552;9.908;2023-08-12T08:44:51;13.80;;;9.50;;
13683;SDS011;6914;53.552;9.908;2023-08-12T08:47:19;9.07;;;8.27;;
13683;SDS011;6914;53.552;9.908;2023-08-12T08:49:51;13.57;;;9.40;;
13683;SDS011;6914;53.552;9.908;2023-08-12T08:52:18;8.43;;;7.83;;
13683;SDS011;6914;53.552;9.908;2023-08-12T08:54:45;6.77;;;6.17;;
13683;SDS011;6914;53.552;9.908;2023-08-12T08:57:13;9.80;;;8.80;;
13683;SDS011;6914;53.552;9.908;2023-08-12T08:59:40;15.27;;;10.73;;
13683;SDS011;6914;53.552;9.908;2023-08-12T09:02:08;12.70;;;10.20;;
13683;SDS011;6914;53.552;9.908;2023-08-12T09:04:40;25.30;;;14.83;;
13683;SDS011;6914;53.552;9.908;2023-08-12T09:07:09;17.47;;;15.63;;
13683;SDS011;6914;53.552;9.908;2023-08-12T09:09:36;19.47;;;15.30;;
13683;SDS011;6914;53.552;9.908;2023-08-12T09:12:04;25.30;;;15.07;;
13683;SDS011;6914;53.552;9.908;2023-08-12T09:14:31;17.83;;;15.70;;
13683;SDS011;6914;53.552;9.908;2023-08-12T09:16:58;19.43;;;14.40;;
13683;SDS011;6914;53.552;9.908;2023-08-12T09:19:25;28.80;;;17.00;;
13683;SDS011;6914;53.552;9.908;2023-08-12T09:21:53;25.07;;;16.67;;
13683;SDS011;6914;53.552;9.908;2023-08-12T09:24:24;34.07;;;16.83;;
13683;SDS011;6914;53.552;9.908;2023-08-12T09:26:52;37.83;;;18.73;;
13683;SDS011;6914;53.552;9.908;2023-08-12T09:29:21;23.20;;;19.73;;
13683;SDS011;6914;53.552;9.908;2023-08-12T09:31:49;25.07;;;18.07;;
13683;SDS011;6914;53.552;9.908;2023-08-12T09:34:17;22.77;;;19.70;;
13683;SDS011;6914;53.552;9.908;2023-08-12T09:36:44;22.60;;;17.13;;
13683;SDS011;6914;53.552;9.908;2023-08-12T09:39:13;25.70;;;20.37;;
13683;SDS011;6914;53.552;9.908;2023-08-12T09:41:42;30.37;;;20.40;;
13683;SDS011;6914;53.552;9.908;2023-08-12T09:44:09;24.23;;;19.83;;
13683;SDS011;6914;53.552;9.908;2023-08-12T09:46:36;24.00;;;20.53;;
13683;SDS011;6914;53.552;9.908;2023-08-12T09:49:06;24.80;;;20.80;;
13683;SDS011;6914;53.552;9.908;2023-08-12T09:51:36;25.67;;;20.37;;
13683;SDS011;6914;53.552;9.908;2023-08-12T09:54:05;24.90;;;21.13;;
13683;SDS011;6914;53.552;9.908;2023-08-12T09:56:33;27.10;;;20.70;;
13683;SDS011;6914;53.552;9.908;2023-08-12T09:59:04;23.87;;;21.37;;
13683;SDS011;6914;53.552;9.908;2023-08-12T10:01:33;26.63;;;20.70;;
13683;SDS011;6914;53.552;9.908;2023-08-12T10:04:00;22.17;;;19.80;;
13683;SDS011;6914;53.552;9.908;2023-08-12T10:06:27;26.40;;;20.83;;
13683;SDS011;6914;53.552;9.908;2023-08-12T10:08:55;25.20;;;20.97;;
13683;SDS011;6914;53.552;9.908;2023-08-12T10:11:23;25.00;;;20.70;;
13683;SDS011;6914;53.552;9.908;2023-08-12T10:13:52;22.40;;;18.53;;
13683;SDS011;6914;53.552;9.908;2023-08-12T10:16:21;23.47;;;17.17;;
13683;SDS011;6914;53.552;9.908;2023-08-12T10:18:48;18.67;;;16.67;;
13683;SDS011;6914;53.552;9.908;2023-08-12T10:21:16;18.50;;;16.60;;
13683;SDS011;6914;53.552;9.908;2023-08-12T10:23:44;18.43;;;16.37;;
13683;SDS011;6914;53.552;9.908;2023-08-12T10:26:11;23.70;;;15.57;;
13683;SDS011;6914;53.552;9.908;2023-08-12T10:28:39;20.73;;;14.80;;
13683;SDS011;6914;53.552;9.908;2023-08-12T10:31:06;19.57;;;13.30;;
13683;SDS011;6914;53.552;9.908;2023-08-12T10:33:38;23.77;;;15.30;;
13683;SDS011;6914;53.552;9.908;2023-08-12T10:36:05;18.00;;;14.27;;
13683;SDS011;6914;53.552;9.908;2023-08-12T10:38:32;20.23;;;15.40;;
13683;SDS011;6914;53.552;9.908;2023-08-12T10:43:53;15.17;;;13.67;;
13683;SDS011;6914;53.552;9.908;2023-08-12T10:46:24;21.70;;;12.97;;
13683;SDS011;6914;53.552;9.908;2023-08-12T10:49:06;14.83;;;13.17;;
13683;SDS011;6914;53.552;9.908;2023-08-12T10:51:40;14.40;;;11.60;;
13683;SDS011;6914;53.552;9.908;2023-08-12T10:54:13;12.10;;;10.83;;
13683;SDS011;6914;53.552;9.908;2023-08-12T11:02:13;12.20;;;8.63;;
13683;SDS011;6914;53.552;9.908;2023-08-12T11:04:44;9.33;;;8.50;;
13683;SDS011;6914;53.552;9.908;2023-08-12T11:07:14;9.30;;;8.40;;
13683;SDS011;6914;53.552;9.908;2023-08-12T11:09:41;7.37;;;6.67;;
13683;SDS011;6914;53.552;9.908;2023-08-12T11:12:09;6.03;;;5.40;;
13683;SDS011;6914;53.552;9.908;2023-08-12T11:14:46;7.47;;;5.87;;
13683;SDS011;6914;53.552;9.908;2023-08-12T11:17:14;7.60;;;5.90;;
13683;SDS011;6914;53.552;9.908;2023-08-12T11:19:42;6.10;;;5.60;;
13683;SDS011;6914;53.552;9.908;2023-08-12T11:22:10;5.40;;;4.97;;
13683;SDS011;6914;53.552;9.908;2023-08-12T11:24:39;5.53;;;5.13;;
13683;SDS011;6914;53.552;9.908;2023-08-12T11:27:09;7.07;;;5.97;;
13683;SDS011;6914;53.552;9.908;2023-08-12T11:29:37;6.87;;;6.20;;
13683;SDS011;6914;53.552;9.908;2023-08-12T11:32:05;7.00;;;6.30;;
13683;SDS011;6914;53.552;9.908;2023-08-12T11:34:32;6.00;;;5.60;;
13683;SDS011;6914;53.552;9.908;2023-08-12T11:36:59;10.20;;;6.43;;
13683;SDS011;6914;53.552;9.908;2023-08-12T11:39:28;6.63;;;6.03;;
13683;SDS011;6914;53.552;9.908;2023-08-12T11:41:56;6.30;;;5.80;;
13683;SDS011;6914;53.552;9.908;2023-08-12T11:44:23;6.13;;;5.73;;
13683;SDS011;6914;53.552;9.908;2023-08-12T11:46:51;5.40;;;4.90;;
13683;SDS011;6914;53.552;9.908;2023-08-12T11:49:18;15.33;;;5.07;;
13683;SDS011;6914;53.552;9.908;2023-08-12T11:51:46;6.90;;;4.53;;
13683;SDS011;6914;53.552;9.908;2023-08-12T11:54:15;6.13;;;5.63;;
13683;SDS011;6914;53.552;9.908;2023-08-12T11:56:44;5.43;;;5.13;;
13683;SDS011;6914;53.552;9.908;2023-08-12T11:59:11;14.27;;;5.80;;
13683;SDS011;6914;53.552;9.908;2023-08-12T12:01:39;7.43;;;6.73;;
13683;SDS011;6914;53.552;9.908;2023-08-12T12:04:06;6.10;;;5.50;;
13683;SDS011;6914;53.552;9.908;2023-08-12T12:06:35;8.20;;;7.57;;
13683;SDS011;6914;53.552;9.908;2023-08-12T12:09:05;7.60;;;7.00;;
13683;SDS011;6914;53.552;9.908;2023-08-12T12:11:34;7.23;;;6.63;;
13683;SDS011;6914;53.552;9.908;2023-08-12T12:14:04;8.53;;;7.83;;
13683;SDS011;6914;53.552;9.908;2023-08-12T12:16:38;13.93;;;7.37;;
13683;SDS011;6914;53.552;9.908;2023-08-12T12:19:08;8.17;;;7.40;;
13683;SDS011;6914;53.552;9.908;2023-08-12T12:21:39;8.53;;;7.80;;
13683;SDS011;6914;53.552;9.908;2023-08-12T12:24:06;12.77;;;9.83;;
13683;SDS011;6914;53.552;9.908;2023-08-12T12:26:34;10.30;;;8.70;;
13683;SDS011;6914;53.552;9.908;2023-08-12T12:29:01;8.63;;;8.00;;
13683;SDS011;6914;53.552;9.908;2023-08-12T12:31:31;9.37;;;8.40;;
13683;SDS011;6914;53.552;9.908;2023-08-12T12:33:58;10.70;;;8.13;;
13683;SDS011;6914;53.552;9.908;2023-08-12T12:36:25;7.57;;;6.97;;
13683;SDS011;6914;53.552;9.908;2023-08-12T12:38:53;8.90;;;8.10;;
13683;SDS011;6914;53.552;9.908;2023-08-12T12:41:20;11.10;;;8.23;;
13683;SDS011;6914;53.552;9.908;2023-08-12T12:43:47;9.20;;;8.40;;
13683;SDS011;6914;53.552;9.908;2023-08-12T12:46:14;8.60;;;7.77;;
13683;SDS011;6914;53.552;9.908;2023-08-12T12:48:43;9.57;;;7.50;;
13683;SDS011;6914;53.552;9.908;2023-08-12T12:51:11;9.20;;;7.70;;
13683;SDS011;6914;53.552;9.908;2023-08-12T12:53:38;9.13;;;8.33;;
13683;SDS011;6914;53.552;9.908;2023-08-12T12:56:05;9.60;;;8.53;;
13683;SDS011;6914;53.552;9.908;2023-08-12T12:58:33;12.17;;;8.23;;
13683;SDS011;6914;53.552;9.908;2023-08-12T13:01:00;7.90;;;6.90;;
13683;SDS011;6914;53.552;9.908;2023-08-12T13:03:29;8.40;;;7.90;;
13683;SDS011;6914;53.552;9.908;2023-08-12T13:05:57;9.93;;;9.03;;
13683;SDS011;6914;53.552;9.908;2023-08-12T13:08:25;10.60;;;9.70;;
13683;SDS011;6914;53.552;9.908;2023-08-12T13:10:53;10.30;;;9.30;;
13683;SDS011;6914;53.552;9.908;2023-08-12T13:13:20;10.67;;;9.87;;
13683;SDS011;6914;53.552;9.908;2023-08-12T13:15:47;12.07;;;10.57;;
13683;SDS011;6914;53.552;9.908;2023-08-12T13:18:14;12.10;;;9.23;;
13683;SDS011;6914;53.552;9.908;2023-08-12T13:20:42;8.93;;;8.33;;
13683;SDS011;6914;53.552;9.908;2023-08-12T13:23:10;10.50;;;9.50;;
13683;SDS011;6914;53.552;9.908;2023-08-12T13:25:38;9.17;;;8.37;;
13683;SDS011;6914;53.552;9.908;2023-08-12T13:28:05;10.63;;;8.93;;
13683;SDS011;6914;53.552;9.908;2023-08-12T13:30:33;11.73;;;8.23;;
13683;SDS011;6914;53.552;9.908;2023-08-12T13:33:00;11.87;;;10.17;;
13683;SDS011;6914;53.552;9.908;2023-08-12T13:35:28;10.13;;;9.13;;
13683;SDS011;6914;53.552;9.908;2023-08-12T13:37:55;10.13;;;9.37;;
13683;SDS011;6914;53.552;9.908;2023-08-12T13:40:24;13.13;;;11.27;;
13683;SDS011;6914;53.552;9.908;2023-08-12T13:42:51;13.03;;;11.80;;
13683;SDS011;6914;53.552;9.908;2023-08-12T13:45:19;13.60;;;11.93;;
13683;SDS011;6914;53.552;9.908;2023-08-12T13:47:46;16.17;;;13.87;;
13683;SDS011;6914;53.552;9.908;2023-08-12T13:50:13;16.93;;;15.13;;
13683;SDS011;6914;53.552;9.908;2023-08-12T13:52:41;25.20;;;14.17;;
13683;SDS011;6914;53.552;9.908;2023-08-12T13:55:08;17.87;;;15.97;;
13683;SDS011;6914;53.552;9.908;2023-08-12T13:57:36;17.20;;;15.27;;
13683;SDS011;6914;53.552;9.908;2023-08-12T14:00:04;17.20;;;15.47;;
13683;SDS011;6914;53.552;9.908;2023-08-12T14:02:35;17.33;;;15.53;;
13683;SDS011;6914;53.552;9.908;2023-08-12T14:05:02;21.10;;;18.83;;
13683;SDS011;6914;53.552;9.908;2023-08-12T14:07:30;22.03;;;19.67;;
13683;SDS011;6914;53.552;9.908;2023-08-12T14:09:57;18.47;;;16.63;;
13683;SDS011;6914;53.552;9.908;2023-08-12T14:12:24;21.90;;;18.03;;
13683;SDS011;6914;53.552;9.908;2023-08-12T14:14:54;20.00;;;18.00;;
13683;SDS011;6914;53.552;9.908;2023-08-12T14:17:21;21.50;;;18.47;;
13683;SDS011;6914;53.552;9.908;2023-08-12T14:19:51;23.17;;;19.50;;
13683;SDS011;6914;53.552;9.908;2023-08-12T14:22:19;21.43;;;19.27;;
13683;SDS011;6914;53.552;9.908;2023-08-12T14:24:46;24.13;;;21.47;;
13683;SDS011;6914;53.552;9.908;2023-08-12T14:27:14;24.10;;;21.50;;
13683;SDS011;6914;53.552;9.908;2023-08-12T14:29:42;19.87;;;17.80;;
13683;SDS011;6914;53.552;9.908;2023-08-12T14:32:11;27.03;;;21.60;;
13683;SDS011;6914;53.552;9.908;2023-08-12T14:34:41;25.33;;;18.67;;
13683;SDS011;6914;53.552;9.908;2023-08-12T14:37:10;21.73;;;19.43;;
13683;SDS011;6914;53.552;9.908;2023-08-12T14:39:37;23.70;;;17.90;;
13683;SDS011;6914;53.552;9.908;2023-08-12T14:42:04;25.03;;;19.20;;
13683;SDS011;6914;53.552;9.908;2023-08-12T14:44:34;22.87;;;18.07;;
13683;SDS011;6914;53.552;9.908;2023-08-12T14:47:02;21.73;;;19.37;;
13683;SDS011;6914;53.552;9.908;2023-08-12T14:49:31;33.13;;;19.83;;
13683;SDS011;6914;53.552;9.908;2023-08-12T14:51:58;19.87;;;17.70;;
13683;SDS011;6914;53.552;9.908;2023-08-12T14:54:26;19.03;;;17.23;;
13683;SDS011;6914;53.552;9.908;2023-08-12T14:56:53;20.27;;;17.23;;
13683;SDS011;6914;53.552;9.908;2023-08-12T14:59:20;18.50;;;15.53;;